KHYR/HYR METAR and TAF weather

Enter ICAO airport designator
Station Type Date Time Source
KHYR METAR 2022/06/29 00:53 UTC NOAA

KHYR 290053Z AUTO 00000KT 10SM BKN100 18/12 A3008 RMK AO2 SLP187 T01780122


Station Type Date Time Source
KHYR Decoded METAR 2022/06/29 00:53 UTC NOAA

HAYWARD MUNICIPAL AIRPORT, WI, United States (KHYR) 46-01N 91-27W 370M
Jun 28, 2022 - 08:53 PM EDT / 2022.06.29 0053 UTC
Wind: Calm:0
Visibility: 10 mile(s):0
Sky conditions: mostly cloudy
Temperature: 64.0 F (17.8 C)
Dew Point: 54.0 F (12.2 C)
Relative Humidity: 69%
Pressure (altimeter): 30.08 in. Hg (1018 hPa)
ob: KHYR 290053Z AUTO 00000KT 10SM BKN100 18/12 A3008 RMK AO2 SLP187 T01780122
cycle: 1

Station Type Date Time Source
KHYR TAF 2022/06/28 19:51 UTC NOAA

TAF
AMD KHYR 281849Z 2819/2918 27008G17KT P6SM VCTS BKN045CB OVC100
TEMPO 2819/2821 1/2SM +TSRAGR BKN015CB BKN045 OVC100
FM282100 34006KT P6SM VCSH SCT025 BKN080
FM290700 00000KT 4SM BR SCT002
FM291400 18007KT P6SM SKC

Example: see airport list